Time;durP1;ratioP1;P1;durP2;ratioP2;P2;SDS_P1;SDS_P2;PMS_P1;PMS_P2;Temp;Humidity;BMP_temperature;BMP_pressure;BME280_temperature;BME280_humidity;BME280_pressure;Samples;Min_cycle;Max_cycle;Signal;HPM_P1;HPM_P2
2023/08/02 00:00:21;;;;;;;3.28;2.67;;;15.00;99.90;;;;;;5060104;28;20098;-87
2023/08/02 00:02:47;;;;;;;2.95;2.67;;;15.00;99.90;;;;;;5072037;28;20080;-85
2023/08/02 00:05:12;;;;;;;2.85;2.58;;;15.00;99.90;;;;;;5066304;28;20527;-86
2023/08/02 00:07:38;;;;;;;2.95;2.72;;;15.00;99.90;;;;;;5049123;28;20024;-86
2023/08/02 00:10:06;;;;;;;5.78;3.08;;;15.00;99.90;;;;;;5047488;28;20018;-84
2023/08/02 00:12:32;;;;;;;3.45;3.15;;;15.00;99.90;;;;;;5048838;28;20089;-87
2023/08/02 00:14:57;;;;;;;4.70;3.45;;;15.00;99.90;;;;;;5040379;28;20053;-87
2023/08/02 00:17:23;;;;;;;5.25;3.50;;;15.00;99.90;;;;;;5048540;28;20033;-85
2023/08/02 00:19:48;;;;;;;4.15;3.20;;;15.00;99.90;;;;;;5048923;28;20017;-87
2023/08/02 00:22:14;;;;;;;4.30;2.97;;;14.90;99.90;;;;;;5037706;28;20905;-88
2023/08/02 00:24:40;;;;;;;5.47;3.40;;;14.90;99.90;;;;;;5029646;28;20025;-85
2023/08/02 00:27:05;;;;;;;5.22;2.85;;;15.00;99.90;;;;;;5046831;28;20017;-86
2023/08/02 00:29:31;;;;;;;3.72;2.90;;;15.00;99.90;;;;;;5047769;28;20148;-85
2023/08/02 00:31:56;;;;;;;3.30;3.00;;;15.00;99.90;;;;;;5048984;28;20033;-83
2023/08/02 00:34:22;;;;;;;7.68;2.80;;;15.00;99.90;;;;;;5055359;28;20021;-84
2023/08/02 00:36:47;;;;;;;8.60;3.88;;;15.00;99.90;;;;;;5043875;28;20025;-85
2023/08/02 00:39:13;;;;;;;6.95;3.38;;;14.90;99.90;;;;;;5040547;28;20029;-85
2023/08/02 00:42:00;;;;;;;3.05;2.75;;;15.00;99.90;;;;;;5048350;28;20488;-85
2023/08/02 00:44:26;;;;;;;3.67;3.03;;;14.90;99.90;;;;;;5058632;28;20026;-84
2023/08/02 00:46:51;;;;;;;2.95;2.65;;;15.00;99.90;;;;;;5039464;28;20028;-85
2023/08/02 00:49:17;;;;;;;3.78;3.00;;;15.00;99.90;;;;;;5048902;28;20033;-84
2023/08/02 00:51:43;;;;;;;3.20;2.92;;;15.00;99.90;;;;;;5049263;28;20075;-84
2023/08/02 00:54:08;;;;;;;4.30;2.80;;;15.00;99.90;;;;;;5042792;28;20477;-84
2023/08/02 00:56:34;;;;;;;5.68;3.13;;;15.00;99.90;;;;;;5034707;28;20379;-83
2023/08/02 00:59:00;;;;;;;3.60;3.10;;;15.00;99.90;;;;;;5038920;28;20025;-85
2023/08/02 01:01:26;;;;;;;3.13;2.83;;;15.00;99.90;;;;;;5045824;28;20034;-85
2023/08/02 01:03:52;;;;;;;6.88;3.35;;;15.00;99.90;;;;;;5043753;28;20030;-85
2023/08/02 01:06:29;;;;;;;3.63;3.33;;;15.00;99.90;;;;;;5039090;28;20028;-85
2023/08/02 01:09:08;;;;;;;4.10;3.70;;;15.00;99.90;;;;;;5055391;28;20400;-85
2023/08/02 01:11:42;;;;;;;4.00;2.53;;;15.00;99.90;;;;;;5038269;28;20018;-84
2023/08/02 01:14:12;;;;;;;2.90;2.55;;;15.00;99.90;;;;;;5038197;28;20018;-85
2023/08/02 01:16:38;;;;;;;3.38;3.00;;;15.00;99.90;;;;;;5047254;28;20032;-84
2023/08/02 01:19:11;;;;;;;2.80;2.55;;;15.00;99.90;;;;;;5037348;28;20479;-84
2023/08/02 01:21:37;;;;;;;3.28;3.00;;;15.00;99.90;;;;;;5043588;28;20449;-85
2023/08/02 01:24:04;;;;;;;3.28;3.08;;;15.00;99.90;;;;;;5024602;28;20025;-87
2023/08/02 01:26:32;;;;;;;3.83;2.97;;;15.00;99.90;;;;;;5054691;28;20017;-87
2023/08/02 01:29:03;;;;;;;3.85;2.92;;;15.00;99.90;;;;;;5054923;28;20034;-87
2023/08/02 01:31:32;;;;;;;3.25;3.05;;;15.00;99.90;;;;;;5053883;28;20040;-87
2023/08/02 01:33:59;;;;;;;3.42;3.08;;;15.00;99.90;;;;;;5046468;28;20021;-85
2023/08/02 01:36:25;;;;;;;4.13;3.80;;;15.00;99.90;;;;;;5044555;28;20030;-86
2023/08/02 01:38:53;;;;;;;5.05;3.83;;;15.00;99.90;;;;;;5044578;28;20247;-85
2023/08/02 01:41:19;;;;;;;3.42;3.08;;;15.00;99.90;;;;;;5046613;28;20628;-86
2023/08/02 01:43:45;;;;;;;4.35;3.95;;;15.00;99.90;;;;;;5051241;28;20053;-85
2023/08/02 01:46:10;;;;;;;3.47;3.17;;;15.00;99.90;;;;;;5039190;28;20033;-85
2023/08/02 01:48:36;;;;;;;5.72;3.75;;;15.00;99.90;;;;;;5049820;28;20055;-84
2023/08/02 01:51:01;;;;;;;4.22;3.17;;;14.90;99.90;;;;;;5059617;28;20071;-84
2023/08/02 01:53:27;;;;;;;3.38;3.08;;;14.90;99.90;;;;;;5052973;28;20492;-83
2023/08/02 01:55:52;;;;;;;5.13;4.28;;;14.90;99.90;;;;;;5045180;28;20036;-85
2023/08/02 01:58:18;;;;;;;3.97;3.13;;;14.90;99.90;;;;;;5059658;28;20049;-86
2023/08/02 02:00:44;;;;;;;3.67;2.92;;;14.90;99.90;;;;;;5051220;28;20051;-85
2023/08/02 02:03:09;;;;;;;3.30;3.00;;;14.90;99.90;;;;;;5049952;28;20085;-85
2023/08/02 02:05:35;;;;;;;4.93;3.13;;;14.90;99.90;;;;;;5051920;28;20091;-85
2023/08/02 02:08:01;;;;;;;2.80;2.45;;;14.90;99.90;;;;;;5052907;28;20406;-84
2023/08/02 02:10:26;;;;;;;4.25;3.00;;;15.00;99.90;;;;;;5041132;28;20022;-85
2023/08/02 02:12:52;;;;;;;4.30;2.97;;;14.90;99.90;;;;;;5058994;28;20055;-84
2023/08/02 02:15:18;;;;;;;3.85;2.28;;;14.90;99.90;;;;;;5050864;28;20524;-84
2023/08/02 02:17:43;;;;;;;3.10;2.50;;;14.90;99.90;;;;;;5050370;28;20265;-83
2023/08/02 02:20:10;;;;;;;2.67;2.10;;;14.90;99.90;;;;;;5052834;28;20026;-84
2023/08/02 02:22:35;;;;;;;2.70;2.10;;;14.90;99.90;;;;;;5052133;28;20030;-84
2023/08/02 02:25:01;;;;;;;4.28;2.50;;;14.90;99.90;;;;;;5054793;28;20047;-83
2023/08/02 02:27:26;;;;;;;4.90;2.13;;;14.90;99.90;;;;;;5051290;28;20034;-84
2023/08/02 02:29:52;;;;;;;2.30;2.13;;;14.90;99.90;;;;;;5044116;28;20028;-84
2023/08/02 02:32:18;;;;;;;3.60;2.17;;;14.90;99.90;;;;;;5056290;28;20105;-84
2023/08/02 02:34:43;;;;;;;3.20;2.70;;;14.90;99.90;;;;;;5031659;28;20032;-84
2023/08/02 02:37:09;;;;;;;3.10;2.10;;;14.90;99.90;;;;;;5058360;28;20032;-85
2023/08/02 02:39:34;;;;;;;2.65;2.45;;;14.90;99.90;;;;;;5048515;28;20021;-84
2023/08/02 02:42:00;;;;;;;4.65;1.90;;;14.90;99.90;;;;;;5050350;28;20035;-86
2023/08/02 02:44:42;;;;;;;2.65;1.77;;;14.90;99.90;;;;;;5037040;28;20029;-84
2023/08/02 02:47:14;;;;;;;3.90;2.05;;;14.90;99.90;;;;;;5051108;28;20030;-84
2023/08/02 02:49:40;;;;;;;2.20;2.00;;;14.90;99.90;;;;;;5035937;28;20049;-85
2023/08/02 02:52:06;;;;;;;1.73;1.52;;;14.90;99.90;;;;;;5038284;28;20032;-85
2023/08/02 02:54:32;;;;;;;2.78;2.08;;;14.90;99.90;;;;;;5039056;28;20101;-86
2023/08/02 02:56:57;;;;;;;2.70;2.25;;;14.90;99.90;;;;;;5041920;28;20033;-87
2023/08/02 02:59:23;;;;;;;2.47;1.88;;;14.90;99.90;;;;;;5045066;28;20052;-85
2023/08/02 03:01:50;;;;;;;2.60;2.00;;;14.90;99.90;;;;;;5044033;28;20078;-85
2023/08/02 03:04:15;;;;;;;2.50;2.30;;;14.90;99.90;;;;;;5047032;28;20025;-85
2023/08/02 03:06:41;;;;;;;2.47;1.98;;;14.90;99.90;;;;;;5052902;28;20025;-84
2023/08/02 03:09:07;;;;;;;3.08;2.70;;;14.90;99.90;;;;;;5044724;28;20073;-85
2023/08/02 03:11:32;;;;;;;3.53;2.28;;;14.90;99.90;;;;;;5053302;28;20026;-84
2023/08/02 03:13:58;;;;;;;6.47;2.50;;;14.90;99.90;;;;;;5046208;28;20024;-85
2023/08/02 03:16:23;;;;;;;1.85;1.52;;;14.90;99.90;;;;;;5045881;28;20022;-86
2023/08/02 03:18:54;;;;;;;2.03;1.83;;;14.90;99.90;;;;;;5046264;28;20071;-86
2023/08/02 03:21:20;;;;;;;6.07;2.20;;;14.90;99.90;;;;;;5046530;28;20168;-85
2023/08/02 03:23:45;;;;;;;3.08;2.25;;;14.90;99.90;;;;;;5049453;28;20033;-85
2023/08/02 03:26:11;;;;;;;3.33;2.30;;;14.90;99.90;;;;;;5063504;28;20021;-87
2023/08/02 03:28:39;;;;;;;2.65;1.80;;;14.90;99.90;;;;;;5053835;28;20037;-85
2023/08/02 03:31:05;;;;;;;2.50;2.30;;;14.90;99.90;;;;;;5051357;28;20030;-86
2023/08/02 03:33:30;;;;;;;3.17;2.00;;;14.90;99.90;;;;;;5051000;28;20033;-86
2023/08/02 03:35:56;;;;;;;3.42;2.40;;;14.90;99.90;;;;;;5050004;28;20033;-85
2023/08/02 03:38:21;;;;;;;3.28;2.55;;;14.90;99.90;;;;;;5051327;28;20068;-88
2023/08/02 03:40:47;;;;;;;4.07;1.90;;;14.90;99.90;;;;;;5050076;28;20044;-88
2023/08/02 03:43:13;;;;;;;3.25;1.92;;;14.90;99.90;;;;;;5049094;28;20029;-87
2023/08/02 03:45:38;;;;;;;4.40;2.00;;;14.90;99.90;;;;;;5049826;28;20049;-86
2023/08/02 03:48:04;;;;;;;2.88;1.98;;;14.90;99.90;;;;;;5056319;28;20017;-86
2023/08/02 03:50:32;;;;;;;4.50;1.70;;;14.90;99.90;;;;;;5071657;28;20029;-87
2023/08/02 03:52:58;;;;;;;1.65;1.52;;;14.90;99.90;;;;;;5058111;28;20037;-87
2023/08/02 03:55:24;;;;;;;2.33;2.05;;;14.90;99.90;;;;;;5057620;28;20025;-87
2023/08/02 03:57:49;;;;;;;2.83;2.08;;;14.90;99.90;;;;;;5052346;28;20041;-86
2023/08/02 04:00:15;;;;;;;2.03;1.83;;;14.90;99.90;;;;;;5049466;28;20045;-87
2023/08/02 04:02:41;;;;;;;4.22;2.33;;;14.90;99.90;;;;;;5049270;28;20030;-88
2023/08/02 04:05:10;;;;;;;2.35;1.75;;;15.00;99.90;;;;;;5050484;28;20025;-87
2023/08/02 04:07:36;;;;;;;2.35;2.20;;;15.00;99.90;;;;;;5048171;28;20082;-88
2023/08/02 04:10:02;;;;;;;5.63;3.95;;;14.90;99.90;;;;;;5056138;28;20026;-87
2023/08/02 04:12:28;;;;;;;2.70;2.20;;;14.90;99.90;;;;;;5048869;28;20037;-88
2023/08/02 04:14:55;;;;;;;2.08;1.70;;;14.90;99.90;;;;;;5049426;28;20025;-87
2023/08/02 04:17:20;;;;;;;2.60;2.40;;;14.90;99.90;;;;;;5048600;28;20032;-87
2023/08/02 04:19:46;;;;;;;2.20;2.00;;;15.00;99.90;;;;;;5047437;28;20021;-87
2023/08/02 04:22:12;;;;;;;2.15;1.98;;;14.90;99.90;;;;;;5050254;28;20033;-87
2023/08/02 04:24:37;;;;;;;2.50;2.30;;;15.00;99.90;;;;;;5054920;28;20029;-88
2023/08/02 04:27:03;;;;;;;4.10;2.50;;;15.00;99.90;;;;;;5051593;28;20021;-88
2023/08/02 04:29:29;;;;;;;2.10;1.95;;;15.00;99.90;;;;;;5053504;28;20072;-88
2023/08/02 04:31:55;;;;;;;2.25;2.00;;;15.00;99.90;;;;;;5047621;28;20026;-86
2023/08/02 04:34:23;;;;;;;2.03;1.75;;;15.00;99.90;;;;;;5046513;28;20103;-88
2023/08/02 04:36:48;;;;;;;2.03;1.77;;;15.00;99.90;;;;;;5049843;28;20025;-86
2023/08/02 04:39:15;;;;;;;3.00;1.70;;;15.00;99.90;;;;;;5048121;28;20093;-87
2023/08/02 04:41:40;;;;;;;2.08;1.98;;;15.00;99.90;;;;;;5048074;28;20044;-87
2023/08/02 04:44:06;;;;;;;1.88;1.75;;;15.00;99.90;;;;;;5045867;28;20225;-88
2023/08/02 04:46:32;;;;;;;1.90;1.70;;;15.00;99.90;;;;;;5047783;28;20033;-88
2023/08/02 04:48:58;;;;;;;1.67;1.23;;;15.00;99.90;;;;;;5033969;28;20093;-90
2023/08/02 04:51:24;;;;;;;1.80;1.70;;;15.00;99.90;;;;;;5052115;28;20017;-89
2023/08/02 04:53:50;;;;;;;1.70;1.52;;;15.00;99.90;;;;;;5044872;28;20037;-89
2023/08/02 04:56:16;;;;;;;1.60;1.50;;;15.00;99.90;;;;;;5047959;28;20156;-89
2023/08/02 04:58:42;;;;;;;1.95;1.75;;;15.00;99.90;;;;;;5050158;28;20079;-88
2023/08/02 05:01:08;;;;;;;1.75;1.50;;;15.10;99.90;;;;;;5056317;28;20100;-88
2023/08/02 05:03:35;;;;;;;1.42;1.30;;;15.00;99.90;;;;;;5033284;28;20029;-87
2023/08/02 05:06:03;;;;;;;1.45;1.30;;;15.10;99.90;;;;;;5045598;28;20017;-88
2023/08/02 05:08:36;;;;;;;3.35;1.50;;;15.00;99.90;;;;;;5045975;28;20026;-88
2023/08/02 05:11:05;;;;;;;1.85;1.63;;;15.10;99.90;;;;;;5045941;28;20085;-87
2023/08/02 05:13:31;;;;;;;3.10;1.90;;;15.10;99.90;;;;;;5045006;28;20048;-88
2023/08/02 05:15:57;;;;;;;1.75;1.52;;;15.10;99.90;;;;;;5044047;28;20026;-89
2023/08/02 05:18:22;;;;;;;2.92;1.90;;;15.10;99.90;;;;;;5019376;28;20472;-88
2023/08/02 05:20:48;;;;;;;2.13;1.92;;;15.10;99.90;;;;;;5043716;28;20168;-89
2023/08/02 05:23:14;;;;;;;3.85;1.77;;;15.10;99.90;;;;;;5053513;28;20029;-89
2023/08/02 05:25:40;;;;;;;4.43;2.30;;;15.10;99.90;;;;;;5063342;28;20073;-85
2023/08/02 05:28:06;;;;;;;3.60;2.50;;;15.10;99.90;;;;;;5045195;28;20037;-88
2023/08/02 05:30:33;;;;;;;5.15;2.55;;;15.20;99.90;;;;;;5043597;28;20053;-88
2023/08/02 05:32:59;;;;;;;3.67;2.58;;;15.20;99.90;;;;;;5062202;28;20048;-89
2023/08/02 05:35:25;;;;;;;3.58;2.72;;;15.20;99.90;;;;;;5043607;28;20018;-87
2023/08/02 05:37:54;;;;;;;5.22;3.22;;;15.20;99.90;;;;;;5050236;28;20013;-88
2023/08/02 05:40:20;;;;;;;2.67;2.47;;;15.20;99.90;;;;;;5049097;28;20022;-88
2023/08/02 05:42:46;;;;;;;4.43;2.67;;;15.30;99.90;;;;;;5043145;28;20060;-88
2023/08/02 05:45:11;;;;;;;4.75;2.67;;;15.30;99.90;;;;;;5043223;28;20025;-88
2023/08/02 05:47:37;;;;;;;5.43;3.08;;;15.30;99.90;;;;;;5044926;28;20037;-88
2023/08/02 05:50:04;;;;;;;3.90;3.22;;;15.30;99.90;;;;;;5044545;28;20026;-86
2023/08/02 05:52:29;;;;;;;3.22;2.65;;;15.40;99.90;;;;;;5043350;28;20092;-87
2023/08/02 05:54:58;;;;;;;7.75;3.30;;;15.40;99.90;;;;;;5045863;28;20024;-88
2023/08/02 05:57:24;;;;;;;3.08;2.72;;;15.40;99.90;;;;;;5041248;28;20065;-87
2023/08/02 05:59:50;;;;;;;8.82;3.25;;;15.40;99.90;;;;;;5041517;28;20436;-86
2023/08/02 06:02:19;;;;;;;3.53;2.63;;;15.50;99.90;;;;;;5045888;28;20038;-88
2023/08/02 06:04:45;;;;;;;4.43;3.55;;;15.60;99.90;;;;;;5036997;28;20021;-86
2023/08/02 06:07:11;;;;;;;3.20;2.90;;;15.70;99.90;;;;;;5034431;28;20254;-86
2023/08/02 06:09:38;;;;;;;4.25;3.00;;;15.70;99.90;;;;;;5038365;28;20025;-87
2023/08/02 06:12:04;;;;;;;4.07;3.03;;;15.80;99.90;;;;;;5038905;28;20093;-85
2023/08/02 06:14:30;;;;;;;5.05;3.13;;;15.80;99.90;;;;;;5039504;28;20076;-85
2023/08/02 06:16:55;;;;;;;3.22;2.70;;;15.80;99.90;;;;;;5032043;28;20033;-86
2023/08/02 06:19:21;;;;;;;8.70;3.20;;;15.80;99.90;;;;;;5035279;28;20116;-85
2023/08/02 06:21:47;;;;;;;4.28;2.60;;;15.90;99.90;;;;;;5031381;28;20052;-87
2023/08/02 06:24:13;;;;;;;2.95;2.75;;;15.90;99.90;;;;;;5036789;28;20576;-86
2023/08/02 06:26:38;;;;;;;4.28;2.70;;;15.90;99.90;;;;;;5037970;28;20451;-85
2023/08/02 06:29:06;;;;;;;4.03;3.30;;;15.90;99.90;;;;;;5037111;28;20113;-87
2023/08/02 06:31:32;;;;;;;4.15;2.80;;;16.00;99.90;;;;;;5030698;28;20509;-85
2023/08/02 06:33:58;;;;;;;3.38;2.78;;;16.00;99.90;;;;;;5034119;28;20061;-85
2023/08/02 06:36:23;;;;;;;3.25;2.60;;;16.00;99.90;;;;;;5034569;28;20028;-86
2023/08/02 06:38:54;;;;;;;3.17;2.95;;;16.00;99.90;;;;;;5030967;28;20033;-85
2023/08/02 06:41:20;;;;;;;7.13;3.45;;;15.90;99.90;;;;;;5034208;28;20026;-85
2023/08/02 06:43:49;;;;;;;4.28;2.80;;;16.00;99.90;;;;;;5038750;28;20094;-86
2023/08/02 06:46:15;;;;;;;3.47;2.80;;;16.00;99.90;;;;;;5035035;28;20026;-85
2023/08/02 06:48:43;;;;;;;4.22;3.80;;;16.00;99.90;;;;;;5032891;28;20022;-84
2023/08/02 06:51:12;;;;;;;4.47;3.95;;;16.00;99.90;;;;;;5059066;28;20399;-85
2023/08/02 06:53:38;;;;;;;6.72;4.57;;;16.20;99.90;;;;;;5030775;28;20395;-85
2023/08/02 06:56:14;;;;;;;6.53;4.82;;;16.30;99.90;;;;;;5046419;28;20028;-84
2023/08/02 06:58:40;;;;;;;9.20;5.22;;;16.40;99.90;;;;;;5033721;28;20033;-84
2023/08/02 07:01:18;;;;;;;4.90;4.40;;;16.40;99.90;;;;;;5033580;28;20041;-85
2023/08/02 07:03:44;;;;;;;6.68;4.88;;;16.40;99.90;;;;;;5046639;28;20036;-86
2023/08/02 07:06:20;;;;;;;5.10;4.05;;;16.40;99.90;;;;;;5045875;28;20090;-85
2023/08/02 07:08:46;;;;;;;;;;;16.40;99.90;;;;;;5046935;28;20040;-83
2023/08/02 07:11:12;;;;;;;5.32;3.70;;;16.40;99.90;;;;;;5046802;28;19908;-86
2023/08/02 07:13:41;;;;;;;8.02;3.85;;;16.50;99.90;;;;;;5038382;28;20079;-86
2023/08/02 07:16:10;;;;;;;5.80;3.92;;;16.60;99.90;;;;;;5037142;28;20029;-84
2023/08/02 07:18:36;;;;;;;4.97;4.25;;;16.70;99.90;;;;;;5035405;28;20133;-86
2023/08/02 07:21:12;;;;;;;5.10;4.20;;;16.80;99.90;;;;;;5032637;28;20068;-85
2023/08/02 07:23:38;;;;;;;6.07;4.82;;;16.90;99.90;;;;;;5033722;28;20721;-85
2023/08/02 07:26:07;;;;;;;7.07;4.07;;;16.90;99.90;;;;;;5041103;28;20014;-84
2023/08/02 07:28:32;;;;;;;7.28;5.20;;;17.00;99.90;;;;;;5038712;28;20710;-85
2023/08/02 07:31:11;;;;;;;6.68;4.95;;;17.00;99.90;;;;;;5034745;28;20038;-84
2023/08/02 07:33:37;;;;;;;8.48;5.85;;;17.10;99.90;;;;;;5056663;28;20025;-84
2023/08/02 07:36:04;;;;;;;6.50;5.85;;;17.40;99.90;;;;;;5042885;28;20032;-85
2023/08/02 07:38:30;;;;;;;6.72;6.05;;;17.60;99.90;;;;;;5042862;28;20028;-85
2023/08/02 07:40:56;;;;;;;5.40;4.90;;;17.70;99.90;;;;;;5033185;28;20056;-85
2023/08/02 07:43:22;;;;;;;6.95;5.75;;;17.70;99.90;;;;;;5029358;28;20114;-86
2023/08/02 07:45:56;;;;;;;6.75;5.30;;;17.60;99.90;;;;;;5042909;28;20037;-85
2023/08/02 07:48:22;;;;;;;7.90;4.95;;;17.60;99.90;;;;;;5031615;28;20034;-85
2023/08/02 07:50:50;;;;;;;6.25;4.78;;;17.60;99.90;;;;;;5047458;28;20021;-85
2023/08/02 07:53:16;;;;;;;7.53;4.78;;;17.60;99.90;;;;;;5044650;28;20053;-85
2023/08/02 07:55:42;;;;;;;5.47;4.93;;;17.60;99.90;;;;;;5044175;28;20044;-85
2023/08/02 07:58:08;;;;;;;6.47;4.80;;;17.50;99.90;;;;;;5048381;28;20051;-85
2023/08/02 08:00:34;;;;;;;4.57;4.07;;;17.60;99.90;;;;;;5049448;28;20021;-85
2023/08/02 08:03:03;;;;;;;8.32;5.00;;;17.70;99.90;;;;;;5040573;28;20048;-85
2023/08/02 08:05:29;;;;;;;6.72;4.13;;;17.70;99.90;;;;;;5039030;28;20410;-86
2023/08/02 08:07:55;;;;;;;4.30;3.90;;;17.70;99.90;;;;;;5033878;28;20095;-85
2023/08/02 08:10:21;;;;;;;7.90;4.68;;;17.80;99.90;;;;;;5034453;28;20638;-86
2023/08/02 08:12:49;;;;;;;4.18;3.78;;;17.80;99.90;;;;;;5040350;28;20036;-86
2023/08/02 08:15:15;;;;;;;7.47;4.90;;;17.80;99.90;;;;;;5048878;28;20017;-86
2023/08/02 08:17:41;;;;;;;6.10;4.68;;;17.90;99.90;;;;;;5041699;28;20037;-85
2023/08/02 08:20:07;;;;;;;7.68;4.10;;;17.80;99.90;;;;;;5047565;28;20033;-86
2023/08/02 08:22:32;;;;;;;6.88;4.55;;;17.80;99.90;;;;;;5036154;28;20049;-85
2023/08/02 08:25:01;;;;;;;7.13;3.95;;;17.80;99.90;;;;;;5038958;28;20021;-85
2023/08/02 08:27:27;;;;;;;7.78;3.70;;;17.90;99.90;;;;;;5042520;28;20028;-84
2023/08/02 08:29:52;;;;;;;6.80;4.05;;;17.80;99.90;;;;;;5042255;28;20030;-86
2023/08/02 08:32:18;;;;;;;6.65;3.97;;;18.00;99.90;;;;;;5045123;28;20079;-86
2023/08/02 08:34:44;;;;;;;5.90;3.42;;;18.20;99.90;;;;;;5044482;28;20041;-86
2023/08/02 08:37:10;;;;;;;5.63;3.80;;;18.30;99.90;;;;;;5039936;28;20078;-87
2023/08/02 08:39:37;;;;;;;7.07;3.92;;;18.40;99.90;;;;;;5032307;28;20025;-88
2023/08/02 08:42:07;;;;;;;7.55;3.45;;;18.40;99.90;;;;;;5045323;28;20024;-89
2023/08/02 08:44:37;;;;;;;7.28;3.55;;;18.40;99.90;;;;;;5043200;28;20379;-88
2023/08/02 08:47:06;;;;;;;10.07;3.38;;;18.40;99.90;;;;;;5041662;28;20021;-88
2023/08/02 08:49:32;;;;;;;4.43;3.15;;;18.40;99.90;;;;;;5032880;28;20033;-88
2023/08/02 08:52:04;;;;;;;4.63;3.33;;;18.40;99.90;;;;;;5044365;28;20018;-87
2023/08/02 08:54:31;;;;;;;7.68;3.10;;;18.40;99.90;;;;;;5031724;28;20116;-88
2023/08/02 08:56:57;;;;;;;6.15;3.45;;;18.50;99.90;;;;;;5041901;28;20021;-88
2023/08/02 08:59:27;;;;;;;6.07;3.67;;;18.50;99.90;;;;;;5036236;28;20021;-87
2023/08/02 09:01:54;;;;;;;8.30;3.47;;;18.50;99.90;;;;;;5034092;28;20557;-87
2023/08/02 09:04:21;;;;;;;6.93;3.33;;;18.60;99.90;;;;;;5029950;28;20049;-87
2023/08/02 09:06:46;;;;;;;5.03;3.45;;;18.70;99.90;;;;;;5038024;28;20025;-88
2023/08/02 09:09:15;;;;;;;6.03;3.28;;;18.70;99.90;;;;;;5030938;28;20033;-87
2023/08/02 09:11:43;;;;;;;4.63;3.20;;;18.80;99.90;;;;;;5036482;28;20025;-87
2023/08/02 09:14:15;;;;;;;8.15;3.55;;;19.00;99.90;;;;;;5036892;28;20472;-88
2023/08/02 09:17:00;;;;;;;6.60;3.30;;;19.20;99.90;;;;;;5031198;28;20033;-88
2023/08/02 09:19:30;;;;;;;4.75;2.90;;;19.30;99.90;;;;;;5031774;28;20025;-89
2023/08/02 09:22:24;;;;;;;9.15;3.38;;;19.40;99.90;;;;;;5033643;28;20044;-87
2023/08/02 09:24:50;;;;;;;6.72;2.85;;;19.60;99.90;;;;;;5027188;28;20116;-88
2023/08/02 09:27:18;;;;;;;4.93;2.58;;;19.80;99.90;;;;;;5033026;28;20550;-87
2023/08/02 09:29:57;;;;;;;6.95;2.55;;;19.90;99.90;;;;;;5063090;28;20449;-56
2023/08/02 09:32:25;;;;;;;3.53;2.20;;;20.10;99.90;;;;;;5076481;28;20044;-51
2023/08/02 09:34:57;;;;;;;4.15;2.25;;;20.10;99.90;;;;;;5063766;28;20395;-55
2023/08/02 09:37:35;;;;;;;4.40;2.20;;;20.10;99.90;;;;;;5078572;28;20021;-56
2023/08/02 09:40:04;;;;;;;5.05;2.63;;;20.10;99.90;;;;;;5059301;28;20032;-52
2023/08/02 09:42:29;;;;;;;5.03;2.80;;;20.10;99.90;;;;;;5063250;28;20017;-54
2023/08/02 09:44:57;;;;;;;7.00;2.45;;;19.90;99.90;;;;;;5075781;28;20451;-55
2023/08/02 09:47:23;;;;;;;4.50;2.72;;;19.90;99.90;;;;;;5065138;28;20083;-55
2023/08/02 09:50:07;;;;;;;2.80;2.20;;;19.90;99.90;;;;;;5056279;28;20036;-56
2023/08/02 09:52:34;;;;;;;2.40;2.20;;;19.90;99.90;;;;;;5072086;28;20013;-57
2023/08/02 09:55:00;;;;;;;6.50;2.72;;;19.80;99.90;;;;;;5079418;28;20031;-56
2023/08/02 09:57:27;;;;;;;7.18;2.33;;;19.70;99.90;;;;;;5064864;28;20017;-56
2023/08/02 09:59:57;;;;;;;4.85;2.55;;;19.70;99.90;;;;;;5069093;28;20112;-55
2023/08/02 10:02:24;;;;;;;5.75;2.67;;;19.70;99.90;;;;;;5069558;28;20123;-51
2023/08/02 10:04:55;;;;;;;8.15;3.17;;;19.60;99.90;;;;;;5051168;28;20039;-56
2023/08/02 10:07:23;;;;;;;6.40;2.35;;;19.70;99.90;;;;;;5066604;28;20130;-55
2023/08/02 10:09:53;;;;;;;4.72;2.47;;;19.70;99.90;;;;;;5070440;28;20033;-55
2023/08/02 10:12:20;;;;;;;3.10;2.47;;;19.70;99.90;;;;;;5069860;28;20021;-56
2023/08/02 10:14:47;;;;;;;3.70;2.42;;;19.80;99.90;;;;;;5070361;28;20024;-55
2023/08/02 10:17:13;;;;;;;5.60;2.70;;;19.90;99.90;;;;;;5067715;28;20686;-56
2023/08/02 10:19:41;;;;;;;2.97;2.40;;;19.90;99.90;;;;;;5069434;28;20652;-56
2023/08/02 10:22:06;;;;;;;5.20;2.88;;;20.00;99.90;;;;;;5067280;28;20028;-57
2023/08/02 10:24:32;;;;;;;6.78;2.95;;;20.00;99.90;;;;;;5072642;28;20025;-57
2023/08/02 10:27:02;;;;;;;4.65;2.47;;;20.00;99.90;;;;;;5066524;28;20051;-56
2023/08/02 10:29:29;;;;;;;5.25;2.40;;;20.00;99.90;;;;;;5061936;28;20068;-52
2023/08/02 10:31:55;;;;;;;4.70;2.38;;;20.00;99.90;;;;;;5062960;28;20048;-55
2023/08/02 10:34:35;;;;;;;5.05;2.50;;;19.90;99.90;;;;;;5072980;28;20474;-57
2023/08/02 10:37:02;;;;;;;3.17;2.13;;;19.80;99.90;;;;;;5064965;28;20024;-55
2023/08/02 10:39:46;;;;;;;5.20;2.40;;;19.80;99.90;;;;;;5067793;28;20093;-55
2023/08/02 10:42:17;;;;;;;4.97;2.83;;;19.70;99.90;;;;;;5047456;28;20036;-55
2023/08/02 10:44:55;;;;;;;9.75;2.78;;;19.70;99.90;;;;;;5055859;28;20033;-56
2023/08/02 10:47:31;;;;;;;4.00;2.30;;;19.70;99.90;;;;;;5048143;28;20094;-54
2023/08/02 10:49:58;;;;;;;3.63;2.67;;;19.70;99.90;;;;;;5050673;28;20045;-54
2023/08/02 10:52:31;;;;;;;6.22;2.85;;;19.60;99.90;;;;;;5048662;28;20033;-55
2023/08/02 10:55:05;;;;;;;6.07;2.53;;;19.60;99.90;;;;;;5049925;28;20059;-56
2023/08/02 10:57:31;;;;;;;6.97;2.17;;;19.50;99.90;;;;;;5050401;28;20056;-56
2023/08/02 10:59:57;;;;;;;3.97;2.45;;;19.50;99.90;;;;;;5055073;28;20061;-56
2023/08/02 11:02:25;;;;;;;4.85;2.55;;;19.50;99.90;;;;;;5070820;28;20067;-57
2023/08/02 11:04:52;;;;;;;3.05;2.42;;;19.40;99.90;;;;;;5054881;28;20119;-57
2023/08/02 11:07:21;;;;;;;5.53;2.53;;;19.30;99.90;;;;;;5062584;28;20039;-54
2023/08/02 11:09:48;;;;;;;7.15;2.63;;;19.30;99.90;;;;;;5075503;28;20029;-53
2023/08/02 11:12:16;;;;;;;6.72;2.42;;;19.20;99.90;;;;;;5070326;28;20059;-55
2023/08/02 11:14:46;;;;;;;3.75;2.05;;;19.20;99.90;;;;;;5072216;28;20104;-56
2023/08/02 11:17:18;;;;;;;5.68;2.72;;;19.20;99.90;;;;;;5068983;28;20044;-53
2023/08/02 11:19:48;;;;;;;3.38;2.15;;;19.10;99.90;;;;;;5069737;28;20029;-55
2023/08/02 11:22:14;;;;;;;6.93;2.20;;;19.10;99.90;;;;;;5078964;28;20024;-56
2023/08/02 11:24:50;;;;;;;3.75;2.47;;;19.00;99.90;;;;;;5075640;28;20017;-57
2023/08/02 11:27:23;;;;;;;5.60;2.50;;;19.00;99.90;;;;;;5078664;28;20440;-57
2023/08/02 11:29:58;;;;;;;4.20;2.30;;;19.00;99.90;;;;;;5074851;28;20028;-57
2023/08/02 11:32:24;;;;;;;4.93;2.65;;;19.00;99.90;;;;;;5078000;28;20097;-55
2023/08/02 11:34:49;;;;;;;4.85;2.22;;;19.00;99.90;;;;;;5060846;28;20036;-53
2023/08/02 11:37:15;;;;;;;5.15;2.33;;;19.00;99.90;;;;;;5057020;28;20028;-58
2023/08/02 11:40:01;;;;;;;3.90;2.60;;;19.00;99.90;;;;;;5076649;28;20028;-56
2023/08/02 11:42:27;;;;;;;4.15;2.22;;;18.90;99.90;;;;;;5068684;28;20036;-54
2023/08/02 11:44:52;;;;;;;4.07;1.90;;;18.90;99.90;;;;;;5078302;28;20043;-56
2023/08/02 11:47:19;;;;;;;4.75;2.53;;;18.90;99.90;;;;;;5072635;28;20024;-56
2023/08/02 11:49:51;;;;;;;6.65;2.28;;;18.90;99.90;;;;;;5081819;28;20032;-58
2023/08/02 11:52:33;;;;;;;6.30;2.67;;;18.90;99.90;;;;;;5060017;28;20024;-53
2023/08/02 11:55:00;;;;;;;4.15;2.38;;;18.90;99.90;;;;;;5071421;28;20077;-53
2023/08/02 11:57:26;;;;;;;5.53;2.63;;;18.90;99.90;;;;;;5072519;28;20031;-54
2023/08/02 11:59:56;;;;;;;4.00;2.13;;;18.80;99.90;;;;;;5078053;28;20082;-54
2023/08/02 12:02:29;;;;;;;3.47;2.10;;;18.80;99.90;;;;;;5076973;28;20550;-57
2023/08/02 12:04:56;;;;;;;5.28;2.50;;;18.80;99.90;;;;;;5064414;28;20089;-58
2023/08/02 12:07:29;;;;;;;5.63;2.55;;;18.80;99.90;;;;;;5074559;28;20024;-55
2023/08/02 12:09:55;;;;;;;6.72;2.50;;;18.70;99.90;;;;;;5063125;28;20035;-56
2023/08/02 12:12:21;;;;;;;4.07;2.33;;;18.70;99.90;;;;;;5074616;28;20016;-55
2023/08/02 12:14:47;;;;;;;4.57;2.58;;;18.70;99.90;;;;;;5077421;28;20047;-55
2023/08/02 12:17:20;;;;;;;4.85;2.60;;;18.60;99.90;;;;;;5070214;28;20622;-59
2023/08/02 12:19:46;;;;;;;3.67;2.63;;;18.60;99.90;;;;;;5077497;28;20111;-57
2023/08/02 12:22:13;;;;;;;3.97;2.65;;;18.50;99.90;;;;;;5073010;28;20025;-53
2023/08/02 12:24:38;;;;;;;4.00;3.03;;;18.50;99.90;;;;;;5074400;28;20399;-52
2023/08/02 12:27:15;;;;;;;3.90;2.50;;;18.50;99.90;;;;;;5066554;28;20078;-54
2023/08/02 12:29:44;;;;;;;4.82;2.30;;;18.50;99.90;;;;;;5076975;28;20043;-57
2023/08/02 12:32:21;;;;;;;4.35;2.00;;;18.40;99.90;;;;;;5074538;28;20100;-56
2023/08/02 12:34:47;;;;;;;3.25;1.63;;;18.50;99.90;;;;;;5078490;28;20494;-54
2023/08/02 12:37:15;;;;;;;3.63;2.28;;;18.50;99.90;;;;;;5076674;28;20024;-56
2023/08/02 12:39:41;;;;;;;2.50;1.90;;;18.40;99.90;;;;;;5079812;28;20505;-53
2023/08/02 12:42:06;;;;;;;3.25;1.88;;;18.40;99.90;;;;;;5077633;28;20031;-55
2023/08/02 12:44:32;;;;;;;3.33;1.92;;;18.40;99.90;;;;;;5069019;28;20513;-57
2023/08/02 12:46:58;;;;;;;3.15;1.90;;;18.50;99.90;;;;;;5071108;28;20023;-54
2023/08/02 12:49:23;;;;;;;5.30;2.10;;;18.50;99.90;;;;;;5080641;28;20028;-57